sensor_id;sensor_type;location;lat;lon;timestamp;temperature;humidity
32612;DHT22;19030;49.478;8.986;2022-08-01T00:01:19;18.20;99.90
32612;DHT22;19030;49.478;8.986;2022-08-01T00:03:19;18.20;99.90
32612;DHT22;19030;49.478;8.986;2022-08-01T00:05:20;18.20;99.90
32612;DHT22;19030;49.478;8.986;2022-08-01T00:07:21;18.20;99.90
32612;DHT22;19030;49.478;8.986;2022-08-01T00:09:21;18.20;99.90
32612;DHT22;19030;49.478;8.986;2022-08-01T00:11:22;18.20;99.90
32612;DHT22;19030;49.478;8.986;2022-08-01T00:13:22;18.20;99.90
32612;DHT22;19030;49.478;8.986;2022-08-01T00:15:23;18.10;99.90
32612;DHT22;19030;49.478;8.986;2022-08-01T00:17:23;18.10;99.90
32612;DHT22;19030;49.478;8.986;2022-08-01T00:19:24;18.10;99.90
32612;DHT22;19030;49.478;8.986;2022-08-01T00:21:24;18.00;99.90
32612;DHT22;19030;49.478;8.986;2022-08-01T00:23:25;18.00;99.90
32612;DHT22;19030;49.478;8.986;2022-08-01T00:25:26;17.90;99.90
32612;DHT22;19030;49.478;8.986;2022-08-01T00:27:27;17.90;99.90
32612;DHT22;19030;49.478;8.986;2022-08-01T00:29:27;17.90;99.90
32612;DHT22;19030;49.478;8.986;2022-08-01T00:31:28;17.80;99.90
32612;DHT22;19030;49.478;8.986;2022-08-01T00:33:29;17.80;99.90
32612;DHT22;19030;49.478;8.986;2022-08-01T00:35:29;17.80;99.90
32612;DHT22;19030;49.478;8.986;2022-08-01T00:37:30;17.80;99.90
32612;DHT22;19030;49.478;8.986;2022-08-01T00:39:31;17.70;99.90
32612;DHT22;19030;49.478;8.986;2022-08-01T00:41:33;17.70;99.90
32612;DHT22;19030;49.478;8.986;2022-08-01T00:43:34;17.70;99.90
32612;DHT22;19030;49.478;8.986;2022-08-01T00:45:35;17.70;99.90
32612;DHT22;19030;49.478;8.986;2022-08-01T00:47:35;17.60;99.90
32612;DHT22;19030;49.478;8.986;2022-08-01T00:49:36;17.60;99.90
32612;DHT22;19030;49.478;8.986;2022-08-01T00:51:36;17.50;99.90
32612;DHT22;19030;49.478;8.986;2022-08-01T00:53:37;17.50;99.90
32612;DHT22;19030;49.478;8.986;2022-08-01T00:55:38;17.50;99.90
32612;DHT22;19030;49.478;8.986;2022-08-01T00:57:39;17.40;99.90
32612;DHT22;19030;49.478;8.986;2022-08-01T00:59:40;17.40;99.90
32612;DHT22;19030;49.478;8.986;2022-08-01T01:01:41;17.40;99.90
32612;DHT22;19030;49.478;8.986;2022-08-01T01:03:41;17.40;99.90
32612;DHT22;19030;49.478;8.986;2022-08-01T01:05:52;17.30;99.90
32612;DHT22;19030;49.478;8.986;2022-08-01T01:08:13;17.30;99.90
32612;DHT22;19030;49.478;8.986;2022-08-01T01:10:21;17.30;99.90
32612;DHT22;19030;49.478;8.986;2022-08-01T01:15:22;17.30;99.90
32612;DHT22;19030;49.478;8.986;2022-08-01T01:17:37;17.30;99.90
32612;DHT22;19030;49.478;8.986;2022-08-01T01:19:44;17.20;99.90
32612;DHT22;19030;49.478;8.986;2022-08-01T01:31:09;17.10;99.90
32612;DHT22;19030;49.478;8.986;2022-08-01T01:33:13;17.10;99.90
32612;DHT22;19030;49.478;8.986;2022-08-01T01:35:18;17.00;99.90
32612;DHT22;19030;49.478;8.986;2022-08-01T01:37:23;17.00;99.90
32612;DHT22;19030;49.478;8.986;2022-08-01T01:39:27;17.00;99.90
32612;DHT22;19030;49.478;8.986;2022-08-01T01:41:28;16.90;99.90
32612;DHT22;19030;49.478;8.986;2022-08-01T01:43:32;16.90;99.90
32612;DHT22;19030;49.478;8.986;2022-08-01T01:45:33;16.90;99.90
32612;DHT22;19030;49.478;8.986;2022-08-01T01:47:34;16.90;99.90
32612;DHT22;19030;49.478;8.986;2022-08-01T01:49:36;16.80;99.90
32612;DHT22;19030;49.478;8.986;2022-08-01T01:51:38;16.80;99.90
32612;DHT22;19030;49.478;8.986;2022-08-01T01:53:40;16.70;99.90
32612;DHT22;19030;49.478;8.986;2022-08-01T01:55:43;16.80;99.90
32612;DHT22;19030;49.478;8.986;2022-08-01T01:57:46;16.80;99.90
32612;DHT22;19030;49.478;8.986;2022-08-01T01:59:47;16.80;99.90
32612;DHT22;19030;49.478;8.986;2022-08-01T02:01:51;16.80;99.90
32612;DHT22;19030;49.478;8.986;2022-08-01T02:03:53;16.80;99.90
32612;DHT22;19030;49.478;8.986;2022-08-01T02:05:55;16.70;99.90
32612;DHT22;19030;49.478;8.986;2022-08-01T02:07:57;16.70;99.90
32612;DHT22;19030;49.478;8.986;2022-08-01T02:10:00;16.70;99.90
32612;DHT22;19030;49.478;8.986;2022-08-01T02:12:02;16.70;99.90
32612;DHT22;19030;49.478;8.986;2022-08-01T02:14:04;16.60;99.90
32612;DHT22;19030;49.478;8.986;2022-08-01T02:16:07;16.60;99.90
32612;DHT22;19030;49.478;8.986;2022-08-01T02:18:09;16.60;99.90
32612;DHT22;19030;49.478;8.986;2022-08-01T02:20:12;16.50;99.90
32612;DHT22;19030;49.478;8.986;2022-08-01T02:22:18;16.50;99.90
32612;DHT22;19030;49.478;8.986;2022-08-01T02:24:36;16.50;99.90
32612;DHT22;19030;49.478;8.986;2022-08-01T02:26:39;16.40;99.90
32612;DHT22;19030;49.478;8.986;2022-08-01T02:29:19;16.40;99.90
32612;DHT22;19030;49.478;8.986;2022-08-01T02:31:14;16.40;99.90
32612;DHT22;19030;49.478;8.986;2022-08-01T02:33:23;16.40;99.90
32612;DHT22;19030;49.478;8.986;2022-08-01T02:35:27;16.40;99.90
32612;DHT22;19030;49.478;8.986;2022-08-01T02:37:32;16.40;99.90
32612;DHT22;19030;49.478;8.986;2022-08-01T02:39:36;16.30;99.90
32612;DHT22;19030;49.478;8.986;2022-08-01T02:41:41;16.40;99.90
32612;DHT22;19030;49.478;8.986;2022-08-01T02:43:47;16.30;99.90
32612;DHT22;19030;49.478;8.986;2022-08-01T02:45:52;16.30;99.90
32612;DHT22;19030;49.478;8.986;2022-08-01T02:48:01;16.30;99.90
32612;DHT22;19030;49.478;8.986;2022-08-01T02:50:05;16.30;99.90
32612;DHT22;19030;49.478;8.986;2022-08-01T02:52:12;16.30;99.90
32612;DHT22;19030;49.478;8.986;2022-08-01T02:54:15;16.30;99.90
32612;DHT22;19030;49.478;8.986;2022-08-01T02:56:18;16.30;99.90
32612;DHT22;19030;49.478;8.986;2022-08-01T02:58:20;16.20;99.90
32612;DHT22;19030;49.478;8.986;2022-08-01T03:00:24;16.20;99.90
32612;DHT22;19030;49.478;8.986;2022-08-01T03:02:27;16.10;99.90
32612;DHT22;19030;49.478;8.986;2022-08-01T03:04:30;16.10;99.90
32612;DHT22;19030;49.478;8.986;2022-08-01T03:06:33;16.10;99.90
32612;DHT22;19030;49.478;8.986;2022-08-01T03:08:35;16.10;99.90
32612;DHT22;19030;49.478;8.986;2022-08-01T03:10:39;16.10;99.90
32612;DHT22;19030;49.478;8.986;2022-08-01T03:12:41;16.10;99.90
32612;DHT22;19030;49.478;8.986;2022-08-01T03:14:44;16.10;99.90
32612;DHT22;19030;49.478;8.986;2022-08-01T03:16:47;16.00;99.90
32612;DHT22;19030;49.478;8.986;2022-08-01T03:18:53;16.00;99.90
32612;DHT22;19030;49.478;8.986;2022-08-01T03:20:54;16.00;99.90
32612;DHT22;19030;49.478;8.986;2022-08-01T03:22:57;15.90;99.90
32612;DHT22;19030;49.478;8.986;2022-08-01T03:24:59;15.80;99.90
32612;DHT22;19030;49.478;8.986;2022-08-01T03:27:02;15.80;99.90
32612;DHT22;19030;49.478;8.986;2022-08-01T03:29:05;15.80;99.90
32612;DHT22;19030;49.478;8.986;2022-08-01T03:31:10;15.80;99.90
32612;DHT22;19030;49.478;8.986;2022-08-01T03:33:13;15.80;99.90
32612;DHT22;19030;49.478;8.986;2022-08-01T03:35:13;15.80;99.90
32612;DHT22;19030;49.478;8.986;2022-08-01T03:39:29;15.90;99.90
32612;DHT22;19030;49.478;8.986;2022-08-01T03:41:39;15.90;99.90
32612;DHT22;19030;49.478;8.986;2022-08-01T03:43:46;15.90;99.90
32612;DHT22;19030;49.478;8.986;2022-08-01T03:45:51;15.90;99.90
32612;DHT22;19030;49.478;8.986;2022-08-01T03:48:01;16.00;99.90
32612;DHT22;19030;49.478;8.986;2022-08-01T03:50:04;15.90;99.90
32612;DHT22;19030;49.478;8.986;2022-08-01T03:52:08;15.90;99.90
32612;DHT22;19030;49.478;8.986;2022-08-01T03:54:10;16.00;99.90
32612;DHT22;19030;49.478;8.986;2022-08-01T03:56:13;15.90;99.90
32612;DHT22;19030;49.478;8.986;2022-08-01T03:58:17;16.00;99.90
32612;DHT22;19030;49.478;8.986;2022-08-01T04:00:17;15.90;99.90
32612;DHT22;19030;49.478;8.986;2022-08-01T04:02:21;16.00;99.90
32612;DHT22;19030;49.478;8.986;2022-08-01T04:04:23;16.00;99.90
32612;DHT22;19030;49.478;8.986;2022-08-01T04:06:23;16.00;99.90
32612;DHT22;19030;49.478;8.986;2022-08-01T04:08:34;16.00;99.90
32612;DHT22;19030;49.478;8.986;2022-08-01T04:10:35;16.00;99.90
32612;DHT22;19030;49.478;8.986;2022-08-01T04:12:36;16.00;99.90
32612;DHT22;19030;49.478;8.986;2022-08-01T04:14:37;15.90;99.90
32612;DHT22;19030;49.478;8.986;2022-08-01T04:16:37;16.00;99.90
32612;DHT22;19030;49.478;8.986;2022-08-01T04:18:38;16.00;99.90
32612;DHT22;19030;49.478;8.986;2022-08-01T04:20:38;15.90;99.90
32612;DHT22;19030;49.478;8.986;2022-08-01T04:22:39;15.90;99.90
32612;DHT22;19030;49.478;8.986;2022-08-01T04:24:44;15.90;99.90
32612;DHT22;19030;49.478;8.986;2022-08-01T04:26:46;15.90;99.90
32612;DHT22;19030;49.478;8.986;2022-08-01T04:28:48;16.00;99.90
32612;DHT22;19030;49.478;8.986;2022-08-01T04:30:52;16.00;99.90
32612;DHT22;19030;49.478;8.986;2022-08-01T04:32:55;16.00;99.90
32612;DHT22;19030;49.478;8.986;2022-08-01T04:34:59;16.10;99.90
32612;DHT22;19030;49.478;8.986;2022-08-01T04:37:01;16.20;99.90
32612;DHT22;19030;49.478;8.986;2022-08-01T04:39:02;16.30;99.90
32612;DHT22;19030;49.478;8.986;2022-08-01T04:41:06;16.30;99.90
32612;DHT22;19030;49.478;8.986;2022-08-01T04:43:08;16.40;99.90
32612;DHT22;19030;49.478;8.986;2022-08-01T04:45:09;16.40;99.90
32612;DHT22;19030;49.478;8.986;2022-08-01T04:47:11;16.50;99.90
32612;DHT22;19030;49.478;8.986;2022-08-01T04:49:13;16.50;99.90
32612;DHT22;19030;49.478;8.986;2022-08-01T04:51:17;16.50;99.90
32612;DHT22;19030;49.478;8.986;2022-08-01T04:53:19;16.60;99.90
32612;DHT22;19030;49.478;8.986;2022-08-01T04:55:22;16.60;99.90
32612;DHT22;19030;49.478;8.986;2022-08-01T04:57:22;16.70;99.90
32612;DHT22;19030;49.478;8.986;2022-08-01T04:59:23;16.80;99.90
32612;DHT22;19030;49.478;8.986;2022-08-01T05:01:41;16.80;99.90
32612;DHT22;19030;49.478;8.986;2022-08-01T05:03:42;17.00;99.90
32612;DHT22;19030;49.478;8.986;2022-08-01T05:05:43;17.10;99.90
32612;DHT22;19030;49.478;8.986;2022-08-01T05:07:43;17.30;99.90
32612;DHT22;19030;49.478;8.986;2022-08-01T05:09:44;17.50;99.90
32612;DHT22;19030;49.478;8.986;2022-08-01T05:11:47;17.70;99.90
32612;DHT22;19030;49.478;8.986;2022-08-01T05:13:48;17.80;99.90
32612;DHT22;19030;49.478;8.986;2022-08-01T05:15:48;17.90;99.90
32612;DHT22;19030;49.478;8.986;2022-08-01T05:17:49;18.00;99.90
32612;DHT22;19030;49.478;8.986;2022-08-01T05:19:50;17.90;99.90
32612;DHT22;19030;49.478;8.986;2022-08-01T05:21:50;17.90;99.90
32612;DHT22;19030;49.478;8.986;2022-08-01T05:23:52;17.90;99.90
32612;DHT22;19030;49.478;8.986;2022-08-01T05:25:53;17.90;99.90
32612;DHT22;19030;49.478;8.986;2022-08-01T05:27:53;18.00;99.90
32612;DHT22;19030;49.478;8.986;2022-08-01T05:29:54;18.20;99.90
32612;DHT22;19030;49.478;8.986;2022-08-01T05:31:54;18.30;99.90
32612;DHT22;19030;49.478;8.986;2022-08-01T05:33:55;18.40;99.90
32612;DHT22;19030;49.478;8.986;2022-08-01T05:35:55;18.50;99.90
32612;DHT22;19030;49.478;8.986;2022-08-01T05:37:56;18.50;99.90
32612;DHT22;19030;49.478;8.986;2022-08-01T05:39:56;18.40;99.90
32612;DHT22;19030;49.478;8.986;2022-08-01T05:41:57;18.40;99.90
32612;DHT22;19030;49.478;8.986;2022-08-01T05:43:58;18.50;99.90
32612;DHT22;19030;49.478;8.986;2022-08-01T05:45:58;18.50;99.90
32612;DHT22;19030;49.478;8.986;2022-08-01T05:47:59;18.50;99.90
32612;DHT22;19030;49.478;8.986;2022-08-01T05:49:59;18.40;99.90
32612;DHT22;19030;49.478;8.986;2022-08-01T05:52:00;18.40;99.90
32612;DHT22;19030;49.478;8.986;2022-08-01T05:54:02;18.30;99.90
32612;DHT22;19030;49.478;8.986;2022-08-01T05:56:03;18.30;99.90
32612;DHT22;19030;49.478;8.986;2022-08-01T05:58:03;18.40;99.90
32612;DHT22;19030;49.478;8.986;2022-08-01T06:00:04;18.50;99.90
32612;DHT22;19030;49.478;8.986;2022-08-01T06:02:12;18.60;99.90
32612;DHT22;19030;49.478;8.986;2022-08-01T06:04:12;18.60;99.90
32612;DHT22;19030;49.478;8.986;2022-08-01T06:06:13;18.70;99.90
32612;DHT22;19030;49.478;8.986;2022-08-01T06:08:16;18.70;99.90
32612;DHT22;19030;49.478;8.986;2022-08-01T06:10:17;18.80;99.90
32612;DHT22;19030;49.478;8.986;2022-08-01T06:12:18;18.80;99.90
32612;DHT22;19030;49.478;8.986;2022-08-01T06:14:18;18.70;99.90
32612;DHT22;19030;49.478;8.986;2022-08-01T06:16:19;18.70;99.90
32612;DHT22;19030;49.478;8.986;2022-08-01T06:18:20;18.70;99.90
32612;DHT22;19030;49.478;8.986;2022-08-01T06:20:21;18.70;99.90
32612;DHT22;19030;49.478;8.986;2022-08-01T06:22:21;18.80;99.90
32612;DHT22;19030;49.478;8.986;2022-08-01T06:24:22;18.90;99.90
32612;DHT22;19030;49.478;8.986;2022-08-01T06:26:24;19.00;99.90
32612;DHT22;19030;49.478;8.986;2022-08-01T06:28:24;19.00;99.90
32612;DHT22;19030;49.478;8.986;2022-08-01T06:30:25;19.10;99.90
32612;DHT22;19030;49.478;8.986;2022-08-01T06:32:26;19.30;99.90
32612;DHT22;19030;49.478;8.986;2022-08-01T06:34:26;19.30;99.90
32612;DHT22;19030;49.478;8.986;2022-08-01T06:36:27;19.50;99.90
32612;DHT22;19030;49.478;8.986;2022-08-01T06:38:27;19.80;99.90
32612;DHT22;19030;49.478;8.986;2022-08-01T06:40:28;20.10;99.90
32612;DHT22;19030;49.478;8.986;2022-08-01T06:42:29;20.50;99.90
32612;DHT22;19030;49.478;8.986;2022-08-01T06:44:31;20.90;99.90
32612;DHT22;19030;49.478;8.986;2022-08-01T06:46:32;21.20;99.90
32612;DHT22;19030;49.478;8.986;2022-08-01T06:48:32;21.40;99.90
32612;DHT22;19030;49.478;8.986;2022-08-01T06:50:33;21.70;99.90
32612;DHT22;19030;49.478;8.986;2022-08-01T06:52:36;22.00;99.30
32612;DHT22;19030;49.478;8.986;2022-08-01T06:54:37;22.50;97.90
32612;DHT22;19030;49.478;8.986;2022-08-01T06:56:37;22.90;96.70
32612;DHT22;19030;49.478;8.986;2022-08-01T06:58:38;23.20;95.30
32612;DHT22;19030;49.478;8.986;2022-08-01T07:00:38;23.40;94.20
32612;DHT22;19030;49.478;8.986;2022-08-01T07:02:39;23.50;93.70
32612;DHT22;19030;49.478;8.986;2022-08-01T07:04:41;23.50;94.00
32612;DHT22;19030;49.478;8.986;2022-08-01T07:06:41;23.40;93.30
32612;DHT22;19030;49.478;8.986;2022-08-01T07:08:42;23.60;93.30
32612;DHT22;19030;49.478;8.986;2022-08-01T07:10:42;24.20;92.20
32612;DHT22;19030;49.478;8.986;2022-08-01T07:12:43;24.80;90.70
32612;DHT22;19030;49.478;8.986;2022-08-01T07:14:44;25.70;88.60
32612;DHT22;19030;49.478;8.986;2022-08-01T07:16:45;26.90;83.70
32612;DHT22;19030;49.478;8.986;2022-08-01T07:18:45;28.00;77.30
32612;DHT22;19030;49.478;8.986;2022-08-01T07:20:46;28.80;71.50
32612;DHT22;19030;49.478;8.986;2022-08-01T07:22:46;29.40;66.50
32612;DHT22;19030;49.478;8.986;2022-08-01T07:24:47;29.70;63.10
32612;DHT22;19030;49.478;8.986;2022-08-01T07:26:48;29.30;63.30
32612;DHT22;19030;49.478;8.986;2022-08-01T07:28:49;28.70;64.40
32612;DHT22;19030;49.478;8.986;2022-08-01T07:30:49;28.40;66.80
32612;DHT22;19030;49.478;8.986;2022-08-01T07:32:50;28.60;65.50
32612;DHT22;19030;49.478;8.986;2022-08-01T07:34:51;28.70;64.60
32612;DHT22;19030;49.478;8.986;2022-08-01T07:36:52;28.30;65.70
32612;DHT22;19030;49.478;8.986;2022-08-01T07:38:52;27.90;67.60
32612;DHT22;19030;49.478;8.986;2022-08-01T07:40:53;28.10;68.20
32612;DHT22;19030;49.478;8.986;2022-08-01T07:42:55;28.60;66.30
32612;DHT22;19030;49.478;8.986;2022-08-01T07:44:55;29.30;64.20
32612;DHT22;19030;49.478;8.986;2022-08-01T07:46:56;30.00;61.60
32612;DHT22;19030;49.478;8.986;2022-08-01T07:48:57;30.60;59.10
32612;DHT22;19030;49.478;8.986;2022-08-01T07:50:57;30.90;57.90
32612;DHT22;19030;49.478;8.986;2022-08-01T07:52:58;30.70;57.10
32612;DHT22;19030;49.478;8.986;2022-08-01T07:54:59;29.90;58.50
32612;DHT22;19030;49.478;8.986;2022-08-01T07:57:00;29.10;61.40
32612;DHT22;19030;49.478;8.986;2022-08-01T07:59:01;28.50;65.50
32612;DHT22;19030;49.478;8.986;2022-08-01T08:01:02;28.20;68.50
32612;DHT22;19030;49.478;8.986;2022-08-01T08:03:02;28.00;69.70
32612;DHT22;19030;49.478;8.986;2022-08-01T08:05:03;27.70;70.90
32612;DHT22;19030;49.478;8.986;2022-08-01T08:07:05;27.40;72.10
32612;DHT22;19030;49.478;8.986;2022-08-01T08:09:05;27.40;71.20
32612;DHT22;19030;49.478;8.986;2022-08-01T08:11:06;27.50;70.30
32612;DHT22;19030;49.478;8.986;2022-08-01T08:13:06;27.90;70.50
32612;DHT22;19030;49.478;8.986;2022-08-01T08:15:07;28.30;66.80
32612;DHT22;19030;49.478;8.986;2022-08-01T08:17:08;28.60;64.70
32612;DHT22;19030;49.478;8.986;2022-08-01T08:19:09;28.70;63.40
32612;DHT22;19030;49.478;8.986;2022-08-01T08:21:09;28.60;63.30
32612;DHT22;19030;49.478;8.986;2022-08-01T08:23:10;28.50;63.40
32612;DHT22;19030;49.478;8.986;2022-08-01T08:25:29;28.10;63.30
32612;DHT22;19030;49.478;8.986;2022-08-01T08:27:30;27.80;65.10
32612;DHT22;19030;49.478;8.986;2022-08-01T08:29:31;27.40;66.60
32612;DHT22;19030;49.478;8.986;2022-08-01T08:31:32;27.30;67.20
32612;DHT22;19030;49.478;8.986;2022-08-01T08:33:33;27.10;67.50
32612;DHT22;19030;49.478;8.986;2022-08-01T08:35:33;27.50;67.20
32612;DHT22;19030;49.478;8.986;2022-08-01T08:37:36;28.70;64.50
32612;DHT22;19030;49.478;8.986;2022-08-01T08:39:37;30.20;61.70
32612;DHT22;19030;49.478;8.986;2022-08-01T08:41:38;31.60;56.60
32612;DHT22;19030;49.478;8.986;2022-08-01T08:43:38;32.70;53.40
32612;DHT22;19030;49.478;8.986;2022-08-01T08:45:39;33.10;51.80
32612;DHT22;19030;49.478;8.986;2022-08-01T08:47:41;32.50;51.10
32612;DHT22;19030;49.478;8.986;2022-08-01T08:49:44;31.50;52.30
32612;DHT22;19030;49.478;8.986;2022-08-01T08:51:47;30.60;54.80
32612;DHT22;19030;49.478;8.986;2022-08-01T08:53:49;29.90;57.00
32612;DHT22;19030;49.478;8.986;2022-08-01T08:55:51;30.30;56.50
32612;DHT22;19030;49.478;8.986;2022-08-01T08:57:53;30.50;54.80
32612;DHT22;19030;49.478;8.986;2022-08-01T08:59:54;30.40;55.70
32612;DHT22;19030;49.478;8.986;2022-08-01T09:01:57;30.30;56.20
32612;DHT22;19030;49.478;8.986;2022-08-01T09:03:58;31.50;54.80
32612;DHT22;19030;49.478;8.986;2022-08-01T09:05:59;32.20;52.00
32612;DHT22;19030;49.478;8.986;2022-08-01T09:07:59;32.10;51.60
32612;DHT22;19030;49.478;8.986;2022-08-01T09:10:00;31.90;51.50
32612;DHT22;19030;49.478;8.986;2022-08-01T09:12:01;31.90;51.20
32612;DHT22;19030;49.478;8.986;2022-08-01T09:14:19;32.40;50.20
32612;DHT22;19030;49.478;8.986;2022-08-01T09:16:24;32.50;49.60
32612;DHT22;19030;49.478;8.986;2022-08-01T09:20:32;32.00;50.70
32612;DHT22;19030;49.478;8.986;2022-08-01T09:22:34;32.40;50.60
32612;DHT22;19030;49.478;8.986;2022-08-01T09:24:36;34.10;48.20
32612;DHT22;19030;49.478;8.986;2022-08-01T09:26:36;36.00;44.60
32612;DHT22;19030;49.478;8.986;2022-08-01T09:28:38;37.20;41.70
32612;DHT22;19030;49.478;8.986;2022-08-01T09:30:38;37.80;40.60
32612;DHT22;19030;49.478;8.986;2022-08-01T09:33:00;38.00;39.10
32612;DHT22;19030;49.478;8.986;2022-08-01T09:35:23;38.50;38.00
32612;DHT22;19030;49.478;8.986;2022-08-01T09:37:30;36.70;39.20
32612;DHT22;19030;49.478;8.986;2022-08-01T09:39:33;36.10;41.10
32612;DHT22;19030;49.478;8.986;2022-08-01T09:41:34;36.80;40.20
32612;DHT22;19030;49.478;8.986;2022-08-01T09:43:34;37.70;38.60
32612;DHT22;19030;49.478;8.986;2022-08-01T09:45:35;38.40;37.40
32612;DHT22;19030;49.478;8.986;2022-08-01T09:47:39;38.50;37.50
32612;DHT22;19030;49.478;8.986;2022-08-01T09:49:41;39.00;35.60
32612;DHT22;19030;49.478;8.986;2022-08-01T09:51:41;39.50;35.00
32612;DHT22;19030;49.478;8.986;2022-08-01T09:53:45;39.90;34.20
32612;DHT22;19030;49.478;8.986;2022-08-01T09:55:46;39.30;34.40
32612;DHT22;19030;49.478;8.986;2022-08-01T09:57:56;37.10;37.30
32612;DHT22;19030;49.478;8.986;2022-08-01T10:00:00;35.20;40.50
32612;DHT22;19030;49.478;8.986;2022-08-01T10:02:01;34.10;42.10
32612;DHT22;19030;49.478;8.986;2022-08-01T10:04:21;33.20;44.10
32612;DHT22;19030;49.478;8.986;2022-08-01T10:06:22;33.60;44.10
32612;DHT22;19030;49.478;8.986;2022-08-01T10:08:23;34.20;42.10
32612;DHT22;19030;49.478;8.986;2022-08-01T10:10:26;35.80;40.90
32612;DHT22;19030;49.478;8.986;2022-08-01T10:12:27;37.10;38.80
32612;DHT22;19030;49.478;8.986;2022-08-01T10:14:29;38.30;36.50
32612;DHT22;19030;49.478;8.986;2022-08-01T10:16:30;38.90;36.50
32612;DHT22;19030;49.478;8.986;2022-08-01T10:18:34;37.90;35.80
32612;DHT22;19030;49.478;8.986;2022-08-01T10:20:35;36.30;37.90
32612;DHT22;19030;49.478;8.986;2022-08-01T10:22:36;34.90;39.70
32612;DHT22;19030;49.478;8.986;2022-08-01T10:24:39;34.70;41.00
32612;DHT22;19030;49.478;8.986;2022-08-01T10:26:40;35.30;40.40
32612;DHT22;19030;49.478;8.986;2022-08-01T10:28:43;36.20;38.70
32612;DHT22;19030;49.478;8.986;2022-08-01T10:30:45;36.00;38.70
32612;DHT22;19030;49.478;8.986;2022-08-01T10:32:47;35.10;39.80
32612;DHT22;19030;49.478;8.986;2022-08-01T10:34:49;34.30;40.50
32612;DHT22;19030;49.478;8.986;2022-08-01T10:36:50;34.00;41.60
32612;DHT22;19030;49.478;8.986;2022-08-01T10:38:52;33.70;42.10
32612;DHT22;19030;49.478;8.986;2022-08-01T10:40:53;33.00;42.90
32612;DHT22;19030;49.478;8.986;2022-08-01T10:42:56;32.20;44.60
32612;DHT22;19030;49.478;8.986;2022-08-01T10:44:57;31.60;46.30
32612;DHT22;19030;49.478;8.986;2022-08-01T10:47:08;31.10;46.60
32612;DHT22;19030;49.478;8.986;2022-08-01T10:49:13;30.90;47.70
32612;DHT22;19030;49.478;8.986;2022-08-01T10:51:14;31.10;47.40
32612;DHT22;19030;49.478;8.986;2022-08-01T10:53:21;31.60;47.50
32612;DHT22;19030;49.478;8.986;2022-08-01T10:55:23;31.90;46.10
32612;DHT22;19030;49.478;8.986;2022-08-01T10:57:24;32.40;45.60
32612;DHT22;19030;49.478;8.986;2022-08-01T10:59:29;33.10;44.60
32612;DHT22;19030;49.478;8.986;2022-08-01T11:01:30;33.20;43.40
32612;DHT22;19030;49.478;8.986;2022-08-01T11:03:35;33.30;43.80
32612;DHT22;19030;49.478;8.986;2022-08-01T11:05:36;33.40;43.00
32612;DHT22;19030;49.478;8.986;2022-08-01T11:07:43;33.00;44.10
32612;DHT22;19030;49.478;8.986;2022-08-01T11:09:47;33.20;43.80
32612;DHT22;19030;49.478;8.986;2022-08-01T11:14:06;33.80;43.10
32612;DHT22;19030;49.478;8.986;2022-08-01T11:16:30;33.70;43.50
32612;DHT22;19030;49.478;8.986;2022-08-01T11:18:31;33.60;43.10
32612;DHT22;19030;49.478;8.986;2022-08-01T11:20:35;33.20;42.80
32612;DHT22;19030;49.478;8.986;2022-08-01T11:25:01;32.10;45.40
32612;DHT22;19030;49.478;8.986;2022-08-01T11:27:18;32.30;45.30
32612;DHT22;19030;49.478;8.986;2022-08-01T11:29:19;33.20;44.40
32612;DHT22;19030;49.478;8.986;2022-08-01T11:38:24;32.70;43.90
32612;DHT22;19030;49.478;8.986;2022-08-01T11:40:28;33.00;43.90
32612;DHT22;19030;49.478;8.986;2022-08-01T11:42:29;33.10;43.20
32612;DHT22;19030;49.478;8.986;2022-08-01T11:44:50;33.10;43.30
32612;DHT22;19030;49.478;8.986;2022-08-01T11:49:26;31.70;45.10
32612;DHT22;19030;49.478;8.986;2022-08-01T11:51:27;31.10;45.90
32612;DHT22;19030;49.478;8.986;2022-08-01T11:53:27;30.40;46.20
32612;DHT22;19030;49.478;8.986;2022-08-01T11:55:31;30.00;47.30
32612;DHT22;19030;49.478;8.986;2022-08-01T11:57:34;29.90;48.30
32612;DHT22;19030;49.478;8.986;2022-08-01T11:59:41;29.80;48.30
32612;DHT22;19030;49.478;8.986;2022-08-01T12:01:45;29.90;48.90
32612;DHT22;19030;49.478;8.986;2022-08-01T12:03:55;29.90;49.20
32612;DHT22;19030;49.478;8.986;2022-08-01T12:05:56;30.00;49.20
32612;DHT22;19030;49.478;8.986;2022-08-01T12:07:57;30.20;48.90
32612;DHT22;19030;49.478;8.986;2022-08-01T12:10:12;30.30;48.60
32612;DHT22;19030;49.478;8.986;2022-08-01T12:12:17;30.40;48.30
32612;DHT22;19030;49.478;8.986;2022-08-01T12:14:19;31.10;48.00
32612;DHT22;19030;49.478;8.986;2022-08-01T12:16:20;31.50;46.40
32612;DHT22;19030;49.478;8.986;2022-08-01T12:18:21;32.20;45.60
32612;DHT22;19030;49.478;8.986;2022-08-01T12:20:22;32.90;44.90
32612;DHT22;19030;49.478;8.986;2022-08-01T12:22:24;33.10;43.60
32612;DHT22;19030;49.478;8.986;2022-08-01T12:24:25;33.00;43.30
32612;DHT22;19030;49.478;8.986;2022-08-01T12:26:39;32.90;43.50
32612;DHT22;19030;49.478;8.986;2022-08-01T12:28:40;32.40;44.20
32612;DHT22;19030;49.478;8.986;2022-08-01T12:30:41;32.50;43.90
32612;DHT22;19030;49.478;8.986;2022-08-01T12:32:44;32.90;44.00
32612;DHT22;19030;49.478;8.986;2022-08-01T12:34:44;33.30;44.50
32612;DHT22;19030;49.478;8.986;2022-08-01T12:36:46;34.00;42.70
32612;DHT22;19030;49.478;8.986;2022-08-01T12:38:52;33.80;41.90
32612;DHT22;19030;49.478;8.986;2022-08-01T12:40:53;33.80;41.90
32612;DHT22;19030;49.478;8.986;2022-08-01T12:43:00;33.60;42.10
32612;DHT22;19030;49.478;8.986;2022-08-01T12:45:02;33.30;41.90
32612;DHT22;19030;49.478;8.986;2022-08-01T12:47:05;33.10;43.30
32612;DHT22;19030;49.478;8.986;2022-08-01T12:49:06;32.90;43.00
32612;DHT22;19030;49.478;8.986;2022-08-01T12:51:07;32.90;43.40
32612;DHT22;19030;49.478;8.986;2022-08-01T12:53:10;32.70;43.00
32612;DHT22;19030;49.478;8.986;2022-08-01T12:55:12;32.60;42.90
32612;DHT22;19030;49.478;8.986;2022-08-01T12:57:23;32.30;42.90
32612;DHT22;19030;49.478;8.986;2022-08-01T12:59:26;32.60;43.70
32612;DHT22;19030;49.478;8.986;2022-08-01T13:01:27;32.90;42.40
32612;DHT22;19030;49.478;8.986;2022-08-01T13:03:28;33.30;42.10
32612;DHT22;19030;49.478;8.986;2022-08-01T13:05:44;33.50;42.00
32612;DHT22;19030;49.478;8.986;2022-08-01T13:09:50;33.90;41.00
32612;DHT22;19030;49.478;8.986;2022-08-01T13:11:50;33.40;41.30
32612;DHT22;19030;49.478;8.986;2022-08-01T13:13:53;33.10;41.50
32612;DHT22;19030;49.478;8.986;2022-08-01T13:16:03;33.30;41.90
32612;DHT22;19030;49.478;8.986;2022-08-01T13:18:30;33.30;41.40
32612;DHT22;19030;49.478;8.986;2022-08-01T13:20:33;33.30;41.30
32612;DHT22;19030;49.478;8.986;2022-08-01T13:22:35;33.40;41.30
32612;DHT22;19030;49.478;8.986;2022-08-01T13:24:35;33.80;40.90
32612;DHT22;19030;49.478;8.986;2022-08-01T13:26:50;34.40;41.00
32612;DHT22;19030;49.478;8.986;2022-08-01T13:29:04;34.80;39.60